sensor_id;sensor_type;location;lat;lon;timestamp;pressure;altitude;pressure_sealevel;temperature;humidity
47280;BME280;34064;44.942;0.008;2024-01-10T00:02:13;99638.06;;;2.47;56.79
47280;BME280;34064;44.942;0.008;2024-01-10T00:04:39;99628.53;;;2.45;56.97
47280;BME280;34064;44.942;0.008;2024-01-10T00:07:05;99625.84;;;2.46;56.81
47280;BME280;34064;44.942;0.008;2024-01-10T00:09:32;99625.84;;;2.46;57.00
47280;BME280;34064;44.942;0.008;2024-01-10T00:11:58;99621.47;;;2.47;57.08
47280;BME280;34064;44.942;0.008;2024-01-10T00:14:24;99622.34;;;2.47;57.00
47280;BME280;34064;44.942;0.008;2024-01-10T00:16:51;99624.06;;;2.48;56.90
47280;BME280;34064;44.942;0.008;2024-01-10T00:19:17;99618.81;;;2.48;56.87
47280;BME280;34064;44.942;0.008;2024-01-10T00:21:43;99620.53;;;2.49;57.19
47280;BME280;34064;44.942;0.008;2024-01-10T00:24:10;99615.28;;;2.49;57.21
47280;BME280;34064;44.942;0.008;2024-01-10T00:26:36;99611.84;;;2.47;57.01
47280;BME280;34064;44.942;0.008;2024-01-10T00:29:02;99612.69;;;2.48;57.22
47280;BME280;34064;44.942;0.008;2024-01-10T00:31:29;99608.31;;;2.48;56.90
47280;BME280;34064;44.942;0.008;2024-01-10T00:33:55;99610.13;;;2.46;57.01
47280;BME280;34064;44.942;0.008;2024-01-10T00:36:21;99609.31;;;2.44;57.32
47280;BME280;34064;44.942;0.008;2024-01-10T00:38:48;99608.47;;;2.42;57.17
47280;BME280;34064;44.942;0.008;2024-01-10T00:41:14;99606.69;;;2.44;57.21
47280;BME280;34064;44.942;0.008;2024-01-10T00:43:41;99611.91;;;2.44;57.10
47280;BME280;34064;44.942;0.008;2024-01-10T00:46:07;99608.41;;;2.45;57.03
47280;BME280;34064;44.942;0.008;2024-01-10T00:48:33;99610.31;;;2.40;57.75
47280;BME280;34064;44.942;0.008;2024-01-10T00:51:00;99610.19;;;2.43;57.72
47280;BME280;34064;44.942;0.008;2024-01-10T00:53:26;99612.81;;;2.45;57.26
47280;BME280;34064;44.942;0.008;2024-01-10T00:55:52;99610.13;;;2.46;56.96
47280;BME280;34064;44.942;0.008;2024-01-10T00:58:19;99603.97;;;2.47;57.17
47280;BME280;34064;44.942;0.008;2024-01-10T01:00:45;99605.78;;;2.45;57.83
47280;BME280;34064;44.942;0.008;2024-01-10T01:03:12;99606.59;;;2.47;57.48
47280;BME280;34064;44.942;0.008;2024-01-10T01:05:38;99596.19;;;2.44;57.21
47280;BME280;34064;44.942;0.008;2024-01-10T01:08:05;99581.31;;;2.45;57.17
47280;BME280;34064;44.942;0.008;2024-01-10T01:10:31;99581.28;;;2.46;57.49
47280;BME280;34064;44.942;0.008;2024-01-10T01:12:58;99587.50;;;2.42;57.46
47280;BME280;34064;44.942;0.008;2024-01-10T01:15:24;99579.53;;;2.45;57.19
47280;BME280;34064;44.942;0.008;2024-01-10T01:17:50;99581.34;;;2.43;57.75
47280;BME280;34064;44.942;0.008;2024-01-10T01:20:16;99576.09;;;2.43;57.59
47280;BME280;34064;44.942;0.008;2024-01-10T01:22:43;99590.84;;;2.47;57.75
47280;BME280;34064;44.942;0.008;2024-01-10T01:25:09;99585.56;;;2.49;57.21
47280;BME280;34064;44.942;0.008;2024-01-10T01:27:35;99580.38;;;2.47;57.88
47280;BME280;34064;44.942;0.008;2024-01-10T01:30:02;99576.72;;;2.52;57.53
47280;BME280;34064;44.942;0.008;2024-01-10T01:32:29;99580.25;;;2.50;57.71
47280;BME280;34064;44.942;0.008;2024-01-10T01:34:55;99578.44;;;2.53;57.62
47280;BME280;34064;44.942;0.008;2024-01-10T01:37:22;99564.44;;;2.54;57.58
47280;BME280;34064;44.942;0.008;2024-01-10T01:39:48;99567.06;;;2.54;57.72
47280;BME280;34064;44.942;0.008;2024-01-10T01:42:16;99568.81;;;2.53;57.33
47280;BME280;34064;44.942;0.008;2024-01-10T01:44:42;99577.59;;;2.52;57.55
47280;BME280;34064;44.942;0.008;2024-01-10T01:47:08;99571.47;;;2.52;57.58
47280;BME280;34064;44.942;0.008;2024-01-10T01:49:35;99564.47;;;2.52;57.51
47280;BME280;34064;44.942;0.008;2024-01-10T01:52:02;99574.00;;;2.55;57.81
47280;BME280;34064;44.942;0.008;2024-01-10T01:54:29;99563.59;;;2.52;57.97
47280;BME280;34064;44.942;0.008;2024-01-10T01:56:57;99564.44;;;2.54;57.74
47280;BME280;34064;44.942;0.008;2024-01-10T01:59:23;99563.59;;;2.53;57.50
47280;BME280;34064;44.942;0.008;2024-01-10T02:01:51;99567.94;;;2.54;57.78
47280;BME280;34064;44.942;0.008;2024-01-10T02:04:17;99551.31;;;2.54;57.65
47280;BME280;34064;44.942;0.008;2024-01-10T02:06:44;99546.88;;;2.56;57.54
47280;BME280;34064;44.942;0.008;2024-01-10T02:09:10;99562.69;;;2.53;57.82
47280;BME280;34064;44.942;0.008;2024-01-10T02:11:37;99567.06;;;2.54;57.76
47280;BME280;34064;44.942;0.008;2024-01-10T02:14:03;99569.81;;;2.49;57.92
47280;BME280;34064;44.942;0.008;2024-01-10T02:16:30;99571.47;;;2.52;57.57
47280;BME280;34064;44.942;0.008;2024-01-10T02:18:56;99576.84;;;2.48;57.64
47280;BME280;34064;44.942;0.008;2024-01-10T02:21:23;99570.63;;;2.51;57.51
47280;BME280;34064;44.942;0.008;2024-01-10T02:23:49;99561.88;;;2.52;58.00
47280;BME280;34064;44.942;0.008;2024-01-10T02:26:16;99558.28;;;2.55;57.62
47280;BME280;34064;44.942;0.008;2024-01-10T02:28:42;99555.59;;;2.56;57.99
47280;BME280;34064;44.942;0.008;2024-01-10T02:31:08;99557.28;;;2.59;57.74
47280;BME280;34064;44.942;0.008;2024-01-10T02:33:35;99557.28;;;2.59;57.74
47280;BME280;34064;44.942;0.008;2024-01-10T02:36:02;99553.69;;;2.61;57.80
47280;BME280;34064;44.942;0.008;2024-01-10T02:38:28;99553.72;;;2.60;57.95
47280;BME280;34064;44.942;0.008;2024-01-10T02:40:55;99563.31;;;2.61;57.75
47280;BME280;34064;44.942;0.008;2024-01-10T02:43:22;99562.63;;;2.56;58.04
47280;BME280;34064;44.942;0.008;2024-01-10T02:45:48;99559.09;;;2.57;57.66
47280;BME280;34064;44.942;0.008;2024-01-10T02:48:15;99566.97;;;2.57;57.84
47280;BME280;34064;44.942;0.008;2024-01-10T02:50:41;99573.03;;;2.59;57.90
47280;BME280;34064;44.942;0.008;2024-01-10T02:53:07;99577.47;;;2.55;57.90
47280;BME280;34064;44.942;0.008;2024-01-10T02:55:34;99578.28;;;2.59;57.64
47280;BME280;34064;44.942;0.008;2024-01-10T02:58:00;99575.69;;;2.57;57.73
47280;BME280;34064;44.942;0.008;2024-01-10T03:00:26;99579.19;;;2.56;57.91
47280;BME280;34064;44.942;0.008;2024-01-10T03:02:53;99571.19;;;2.61;57.77
47280;BME280;34064;44.942;0.008;2024-01-10T03:05:19;99571.16;;;2.62;58.00
47280;BME280;34064;44.942;0.008;2024-01-10T03:07:45;99563.28;;;2.62;58.00
47280;BME280;34064;44.942;0.008;2024-01-10T03:10:12;99567.66;;;2.62;57.91
47280;BME280;34064;44.942;0.008;2024-01-10T03:12:38;99562.41;;;2.62;58.11
47280;BME280;34064;44.942;0.008;2024-01-10T03:15:06;99559.78;;;2.62;57.54
47280;BME280;34064;44.942;0.008;2024-01-10T03:17:32;99552.88;;;2.59;58.19
47280;BME280;34064;44.942;0.008;2024-01-10T03:20:00;99547.56;;;2.61;57.97
47280;BME280;34064;44.942;0.008;2024-01-10T03:22:26;99538.81;;;2.62;58.16
47280;BME280;34064;44.942;0.008;2024-01-10T03:24:52;99544.09;;;2.60;58.23
47280;BME280;34064;44.942;0.008;2024-01-10T03:27:19;99542.31;;;2.61;57.90
47280;BME280;34064;44.942;0.008;2024-01-10T03:29:45;99537.91;;;2.63;57.83
47280;BME280;34064;44.942;0.008;2024-01-10T03:32:11;99542.38;;;2.59;58.01
47280;BME280;34064;44.942;0.008;2024-01-10T03:34:37;99551.06;;;2.61;58.16
47280;BME280;34064;44.942;0.008;2024-01-10T03:37:04;99561.56;;;2.61;57.87
47280;BME280;34064;44.942;0.008;2024-01-10T03:39:31;99579.19;;;2.58;57.99
47280;BME280;34064;44.942;0.008;2024-01-10T03:41:58;99583.69;;;2.53;58.16
47280;BME280;34064;44.942;0.008;2024-01-10T03:44:26;99581.88;;;2.55;58.03
47280;BME280;34064;44.942;0.008;2024-01-10T03:46:52;99578.34;;;2.56;58.47
47280;BME280;34064;44.942;0.008;2024-01-10T03:49:18;99580.78;;;2.62;58.16
47280;BME280;34064;44.942;0.008;2024-01-10T03:51:45;99575.44;;;2.65;58.00
47280;BME280;34064;44.942;0.008;2024-01-10T03:54:11;99570.13;;;2.67;58.08
47280;BME280;34064;44.942;0.008;2024-01-10T03:56:37;99571.84;;;2.68;57.68
47280;BME280;34064;44.942;0.008;2024-01-10T03:59:04;99571.09;;;2.64;57.93
47280;BME280;34064;44.942;0.008;2024-01-10T04:01:30;99565.91;;;2.62;57.99
47280;BME280;34064;44.942;0.008;2024-01-10T04:03:56;99564.94;;;2.65;58.10
47280;BME280;34064;44.942;0.008;2024-01-10T04:06:23;99569.28;;;2.66;57.89
47280;BME280;34064;44.942;0.008;2024-01-10T04:08:50;99557.09;;;2.65;58.30
47280;BME280;34064;44.942;0.008;2024-01-10T04:11:16;99551.75;;;2.68;57.87
47280;BME280;34064;44.942;0.008;2024-01-10T04:13:42;99556.13;;;2.68;58.04
47280;BME280;34064;44.942;0.008;2024-01-10T04:16:09;99551.75;;;2.68;58.31
47280;BME280;34064;44.942;0.008;2024-01-10T04:18:35;99551.75;;;2.68;58.18
47280;BME280;34064;44.942;0.008;2024-01-10T04:21:02;99538.63;;;2.68;58.33
47280;BME280;34064;44.942;0.008;2024-01-10T04:23:28;99533.31;;;2.70;58.11
47280;BME280;34064;44.942;0.008;2024-01-10T04:25:56;99529.88;;;2.68;58.22
47280;BME280;34064;44.942;0.008;2024-01-10T04:28:23;99528.16;;;2.67;58.20
47280;BME280;34064;44.942;0.008;2024-01-10T04:30:49;99525.50;;;2.68;58.06
47280;BME280;34064;44.942;0.008;2024-01-10T04:33:15;99523.81;;;2.65;58.11
47280;BME280;34064;44.942;0.008;2024-01-10T04:35:42;99530.84;;;2.65;58.20
47280;BME280;34064;44.942;0.008;2024-01-10T04:38:08;99520.44;;;2.62;58.38
47280;BME280;34064;44.942;0.008;2024-01-10T04:40:34;99519.50;;;2.64;58.28
47280;BME280;34064;44.942;0.008;2024-01-10T04:43:00;99518.63;;;2.64;58.54
47280;BME280;34064;44.942;0.008;2024-01-10T04:45:27;99515.09;;;2.65;58.15
47280;BME280;34064;44.942;0.008;2024-01-10T04:47:53;99516.81;;;2.66;58.18
47280;BME280;34064;44.942;0.008;2024-01-10T04:50:19;99517.66;;;2.67;58.12
47280;BME280;34064;44.942;0.008;2024-01-10T04:52:46;99526.44;;;2.65;58.33
47280;BME280;34064;44.942;0.008;2024-01-10T04:55:12;99519.38;;;2.68;58.13
47280;BME280;34064;44.942;0.008;2024-01-10T04:57:38;99515.84;;;2.69;58.49
47280;BME280;34064;44.942;0.008;2024-01-10T05:00:05;99504.50;;;2.68;58.46
47280;BME280;34064;44.942;0.008;2024-01-10T05:02:32;99488.72;;;2.70;58.25
47280;BME280;34064;44.942;0.008;2024-01-10T05:04:59;99501.00;;;2.69;58.41
47280;BME280;34064;44.942;0.008;2024-01-10T05:07:25;99507.09;;;2.70;58.22
47280;BME280;34064;44.942;0.008;2024-01-10T05:09:51;99520.25;;;2.68;58.30
47280;BME280;34064;44.942;0.008;2024-01-10T05:12:18;99542.03;;;2.70;58.39
47280;BME280;34064;44.942;0.008;2024-01-10T05:14:44;99550.78;;;2.71;58.15
47280;BME280;34064;44.942;0.008;2024-01-10T05:17:10;99544.66;;;2.70;58.33
47280;BME280;34064;44.942;0.008;2024-01-10T05:19:37;99539.31;;;2.73;58.33
47280;BME280;34064;44.942;0.008;2024-01-10T05:22:04;99540.22;;;2.72;58.14
47280;BME280;34064;44.942;0.008;2024-01-10T05:24:31;99532.25;;;2.75;58.22
47280;BME280;34064;44.942;0.008;2024-01-10T05:26:57;99525.22;;;2.77;58.21
47280;BME280;34064;44.942;0.008;2024-01-10T05:29:24;99523.38;;;2.79;58.74
47280;BME280;34064;44.942;0.008;2024-01-10T05:31:51;99517.22;;;2.80;58.72
47280;BME280;34064;44.942;0.008;2024-01-10T05:34:17;99511.88;;;2.84;58.28
47280;BME280;34064;44.942;0.008;2024-01-10T05:36:43;99514.41;;;2.87;58.37
47280;BME280;34064;44.942;0.008;2024-01-10T05:39:10;99510.06;;;2.86;58.50
47280;BME280;34064;44.942;0.008;2024-01-10T05:41:36;99516.13;;;2.88;58.49
47280;BME280;34064;44.942;0.008;2024-01-10T05:44:02;99507.38;;;2.87;58.39
47280;BME280;34064;44.942;0.008;2024-01-10T05:46:30;99503.78;;;2.90;58.55
47280;BME280;34064;44.942;0.008;2024-01-10T05:48:57;99510.75;;;2.91;58.58
47280;BME280;34064;44.942;0.008;2024-01-10T05:51:23;99504.59;;;2.92;58.60
47280;BME280;34064;44.942;0.008;2024-01-10T05:53:49;99518.59;;;2.92;58.38
47280;BME280;34064;44.942;0.008;2024-01-10T05:56:16;99521.16;;;2.94;58.46
47280;BME280;34064;44.942;0.008;2024-01-10T05:58:42;99512.47;;;2.92;58.55
47280;BME280;34064;44.942;0.008;2024-01-10T06:01:09;99515.09;;;2.92;58.52
47280;BME280;34064;44.942;0.008;2024-01-10T06:03:36;99523.78;;;2.94;58.50
47280;BME280;34064;44.942;0.008;2024-01-10T06:06:03;99522.00;;;2.94;58.63
47280;BME280;34064;44.942;0.008;2024-01-10T06:08:30;99517.63;;;2.95;58.52
47280;BME280;34064;44.942;0.008;2024-01-10T06:10:56;99515.91;;;2.94;58.58
47280;BME280;34064;44.942;0.008;2024-01-10T06:13:22;99521.97;;;2.96;58.54
47280;BME280;34064;44.942;0.008;2024-01-10T06:15:49;99523.69;;;2.97;58.44
47280;BME280;34064;44.942;0.008;2024-01-10T06:18:16;99523.63;;;2.99;58.31
47280;BME280;34064;44.942;0.008;2024-01-10T06:20:43;99527.91;;;3.01;58.46
47280;BME280;34064;44.942;0.008;2024-01-10T06:23:09;99520.94;;;3.00;58.67
47280;BME280;34064;44.942;0.008;2024-01-10T06:25:36;99522.59;;;3.03;58.74
47280;BME280;34064;44.942;0.008;2024-01-10T06:28:02;99516.50;;;3.02;58.63
47280;BME280;34064;44.942;0.008;2024-01-10T06:30:29;99507.81;;;3.00;58.61
47280;BME280;34064;44.942;0.008;2024-01-10T06:32:55;99510.44;;;3.00;58.71
47280;BME280;34064;44.942;0.008;2024-01-10T06:35:21;99507.88;;;2.99;58.59
47280;BME280;34064;44.942;0.008;2024-01-10T06:37:48;99518.31;;;3.00;58.82
47280;BME280;34064;44.942;0.008;2024-01-10T06:40:14;99514.78;;;3.01;58.69
47280;BME280;34064;44.942;0.008;2024-01-10T06:42:40;99494.69;;;3.00;58.56
47280;BME280;34064;44.942;0.008;2024-01-10T06:45:07;99475.63;;;2.95;58.82
47280;BME280;34064;44.942;0.008;2024-01-10T06:47:35;99479.16;;;2.94;58.74
47280;BME280;34064;44.942;0.008;2024-01-10T06:50:01;99495.91;;;2.90;58.63
47280;BME280;34064;44.942;0.008;2024-01-10T06:52:28;99503.78;;;2.90;58.47
47280;BME280;34064;44.942;0.008;2024-01-10T06:54:54;99513.50;;;2.88;58.63
47280;BME280;34064;44.942;0.008;2024-01-10T06:57:21;99509.03;;;2.90;58.53
47280;BME280;34064;44.942;0.008;2024-01-10T06:59:47;99510.75;;;2.91;58.60
47280;BME280;34064;44.942;0.008;2024-01-10T07:02:13;99509.69;;;2.96;58.55
47280;BME280;34064;44.942;0.008;2024-01-10T07:04:40;99512.31;;;2.96;58.70
47280;BME280;34064;44.942;0.008;2024-01-10T07:07:06;99512.31;;;2.96;58.89
47280;BME280;34064;44.942;0.008;2024-01-10T07:09:34;99508.72;;;2.99;58.53
47280;BME280;34064;44.942;0.008;2024-01-10T07:12:00;99506.00;;;3.02;58.62
47280;BME280;34064;44.942;0.008;2024-01-10T07:14:28;99512.06;;;3.04;58.76
47280;BME280;34064;44.942;0.008;2024-01-10T07:16:54;99513.78;;;3.05;58.75
47280;BME280;34064;44.942;0.008;2024-01-10T07:19:22;99524.16;;;3.08;58.62
47280;BME280;34064;44.942;0.008;2024-01-10T07:21:50;99515.44;;;3.08;58.89
47280;BME280;34064;44.942;0.008;2024-01-10T07:24:16;99509.22;;;3.10;58.65
47280;BME280;34064;44.942;0.008;2024-01-10T07:26:42;99504.78;;;3.12;58.70
47280;BME280;34064;44.942;0.008;2024-01-10T07:29:09;99506.50;;;3.14;58.41
47280;BME280;34064;44.942;0.008;2024-01-10T07:31:35;99514.41;;;3.12;58.39
47280;BME280;34064;44.942;0.008;2024-01-10T07:34:02;99509.22;;;3.10;58.57
47280;BME280;34064;44.942;0.008;2024-01-10T07:36:31;99515.38;;;3.09;58.82
47280;BME280;34064;44.942;0.008;2024-01-10T07:39:00;99511.00;;;3.10;58.78
47280;BME280;34064;44.942;0.008;2024-01-10T07:41:26;99513.56;;;3.11;58.56
47280;BME280;34064;44.942;0.008;2024-01-10T07:43:53;99510.03;;;3.12;58.60
47280;BME280;34064;44.942;0.008;2024-01-10T07:46:19;99508.31;;;3.11;58.72
47280;BME280;34064;44.942;0.008;2024-01-10T07:48:45;99506.53;;;3.12;58.94
47280;BME280;34064;44.942;0.008;2024-01-10T07:51:12;99510.94;;;3.11;58.92
47280;BME280;34064;44.942;0.008;2024-01-10T07:53:38;99519.66;;;3.12;59.05
47280;BME280;34064;44.942;0.008;2024-01-10T07:56:04;99514.38;;;3.14;58.97
47280;BME280;34064;44.942;0.008;2024-01-10T07:58:31;99521.44;;;3.11;58.98
47280;BME280;34064;44.942;0.008;2024-01-10T08:00:57;99514.41;;;3.12;59.01
47280;BME280;34064;44.942;0.008;2024-01-10T08:03:24;99512.56;;;3.14;59.02
47280;BME280;34064;44.942;0.008;2024-01-10T08:05:50;99518.81;;;3.11;59.03
47280;BME280;34064;44.942;0.008;2024-01-10T08:08:16;99518.75;;;3.13;58.68
47280;BME280;34064;44.942;0.008;2024-01-10T08:10:43;99534.63;;;3.10;58.62
47280;BME280;34064;44.942;0.008;2024-01-10T08:13:09;99543.41;;;3.09;58.94
47280;BME280;34064;44.942;0.008;2024-01-10T08:15:36;99536.28;;;3.12;59.00
47280;BME280;34064;44.942;0.008;2024-01-10T08:18:03;99542.38;;;3.13;58.64
47280;BME280;34064;44.942;0.008;2024-01-10T08:20:29;99549.34;;;3.14;59.16
47280;BME280;34064;44.942;0.008;2024-01-10T08:22:55;99551.00;;;3.17;59.28
47280;BME280;34064;44.942;0.008;2024-01-10T08:25:23;99543.84;;;3.22;58.69
47280;BME280;34064;44.942;0.008;2024-01-10T08:27:50;99544.66;;;3.24;58.88
47280;BME280;34064;44.942;0.008;2024-01-10T08:30:18;99542.94;;;3.23;58.68
47280;BME280;34064;44.942;0.008;2024-01-10T08:32:44;99530.63;;;3.23;58.91
47280;BME280;34064;44.942;0.008;2024-01-10T08:35:11;99528.00;;;3.23;58.99
47280;BME280;34064;44.942;0.008;2024-01-10T08:37:37;99527.19;;;3.23;58.89
47280;BME280;34064;44.942;0.008;2024-01-10T08:40:04;99535.09;;;3.21;59.10
47280;BME280;34064;44.942;0.008;2024-01-10T08:42:36;99554.41;;;3.20;59.15
47280;BME280;34064;44.942;0.008;2024-01-10T08:45:02;99539.50;;;3.21;59.27
47280;BME280;34064;44.942;0.008;2024-01-10T08:47:29;99548.28;;;3.20;59.03
47280;BME280;34064;44.942;0.008;2024-01-10T08:49:58;99573.63;;;3.21;59.14
47280;BME280;34064;44.942;0.008;2024-01-10T08:52:25;99586.75;;;3.21;59.24
47280;BME280;34064;44.942;0.008;2024-01-10T08:54:51;99577.06;;;3.23;59.45
47280;BME280;34064;44.942;0.008;2024-01-10T08:57:17;99575.19;;;3.26;59.21
47280;BME280;34064;44.942;0.008;2024-01-10T08:59:44;99577.75;;;3.28;59.04
47280;BME280;34064;44.942;0.008;2024-01-10T09:02:10;99585.59;;;3.30;59.48
47280;BME280;34064;44.942;0.008;2024-01-10T09:04:36;99579.38;;;3.32;59.25
47280;BME280;34064;44.942;0.008;2024-01-10T09:07:03;99570.47;;;3.36;59.29
47280;BME280;34064;44.942;0.008;2024-01-10T09:09:29;99564.31;;;3.37;59.20
47280;BME280;34064;44.942;0.008;2024-01-10T09:11:57;99566.00;;;3.40;59.52
47280;BME280;34064;44.942;0.008;2024-01-10T09:14:23;99565.03;;;3.42;59.09
47280;BME280;34064;44.942;0.008;2024-01-10T09:16:49;99569.63;;;3.36;59.16
47280;BME280;34064;44.942;0.008;2024-01-10T09:19:16;99565.22;;;3.36;59.74
47280;BME280;34064;44.942;0.008;2024-01-10T09:21:43;99574.03;;;3.35;59.76
47280;BME280;34064;44.942;0.008;2024-01-10T09:24:09;99565.28;;;3.35;59.66
47280;BME280;34064;44.942;0.008;2024-01-10T09:26:37;99572.19;;;3.37;59.64
47280;BME280;34064;44.942;0.008;2024-01-10T09:29:03;99582.69;;;3.37;59.75
47280;BME280;34064;44.942;0.008;2024-01-10T09:31:30;99581.84;;;3.37;60.12
47280;BME280;34064;44.942;0.008;2024-01-10T09:33:56;99581.84;;;3.37;59.83
47280;BME280;34064;44.942;0.008;2024-01-10T09:36:23;99578.25;;;3.39;60.21
47280;BME280;34064;44.942;0.008;2024-01-10T09:38:49;99582.59;;;3.40;60.04
47280;BME280;34064;44.942;0.008;2024-01-10T09:41:17;99577.34;;;3.40;59.93
47280;BME280;34064;44.942;0.008;2024-01-10T09:43:44;99573.81;;;3.41;60.01
47280;BME280;34064;44.942;0.008;2024-01-10T09:46:11;99574.63;;;3.43;59.90
47280;BME280;34064;44.942;0.008;2024-01-10T09:48:38;99577.13;;;3.47;60.16
47280;BME280;34064;44.942;0.008;2024-01-10T09:51:05;99565.66;;;3.49;59.91
47280;BME280;34064;44.942;0.008;2024-01-10T09:53:32;99568.28;;;3.49;60.27
47280;BME280;34064;44.942;0.008;2024-01-10T09:56:04;99565.59;;;3.51;60.06
47280;BME280;34064;44.942;0.008;2024-01-10T09:58:31;99566.28;;;3.56;59.95
47280;BME280;34064;44.942;0.008;2024-01-10T10:00:58;99568.81;;;3.59;60.15
47280;BME280;34064;44.942;0.008;2024-01-10T10:03:25;99570.47;;;3.62;60.05
47280;BME280;34064;44.942;0.008;2024-01-10T10:05:52;99572.25;;;3.61;60.34
47280;BME280;34064;44.942;0.008;2024-01-10T10:08:18;99566.84;;;3.64;60.55
47280;BME280;34064;44.942;0.008;2024-01-10T10:10:49;99566.81;;;3.66;60.36
47280;BME280;34064;44.942;0.008;2024-01-10T10:13:28;99568.56;;;3.65;60.62
47280;BME280;34064;44.942;0.008;2024-01-10T10:16:02;99565.00;;;3.68;60.42
47280;BME280;34064;44.942;0.008;2024-01-10T10:18:29;99573.72;;;3.68;60.34
47280;BME280;34064;44.942;0.008;2024-01-10T10:23:41;99571.22;;;3.65;60.89
47280;BME280;34064;44.942;0.008;2024-01-10T10:26:15;99571.22;;;3.65;60.88
47280;BME280;34064;44.942;0.008;2024-01-10T10:28:49;99575.53;;;3.68;60.84
47280;BME280;34064;44.942;0.008;2024-01-10T10:31:19;99565.75;;;3.71;60.59
47280;BME280;34064;44.942;0.008;2024-01-10T10:33:46;99551.56;;;3.75;60.90
47280;BME280;34064;44.942;0.008;2024-01-10T10:36:14;99553.19;;;3.80;61.02
47280;BME280;34064;44.942;0.008;2024-01-10T10:38:41;99555.75;;;3.81;60.60
47280;BME280;34064;44.942;0.008;2024-01-10T10:41:08;99553.81;;;3.86;60.84
47280;BME280;34064;44.942;0.008;2024-01-10T10:43:38;99551.13;;;3.88;61.05
47280;BME280;34064;44.942;0.008;2024-01-10T10:46:06;99554.50;;;3.92;60.45
47280;BME280;34064;44.942;0.008;2024-01-10T10:48:34;99546.50;;;3.95;60.69
47280;BME280;34064;44.942;0.008;2024-01-10T10:51:06;99544.53;;;4.00;60.89
47280;BME280;34064;44.942;0.008;2024-01-10T10:53:36;99547.13;;;4.01;61.00
47280;BME280;34064;44.942;0.008;2024-01-10T10:56:06;99547.00;;;4.04;60.90
47280;BME280;34064;44.942;0.008;2024-01-10T10:58:35;99536.38;;;4.08;60.81
47280;BME280;34064;44.942;0.008;2024-01-10T11:01:05;99542.38;;;4.11;61.13
47280;BME280;34064;44.942;0.008;2024-01-10T11:03:35;99543.34;;;4.09;60.84
47280;BME280;34064;44.942;0.008;2024-01-10T11:06:03;99544.19;;;4.09;61.04
47280;BME280;34064;44.942;0.008;2024-01-10T11:08:44;99539.91;;;4.06;61.13
47280;BME280;34064;44.942;0.008;2024-01-10T11:17:14;99529.50;;;4.03;61.02
47280;BME280;34064;44.942;0.008;2024-01-10T11:22:55;99532.09;;;4.05;61.18
47280;BME280;34064;44.942;0.008;2024-01-10T11:25:27;99513.56;;;4.08;61.04
47280;BME280;34064;44.942;0.008;2024-01-10T11:27:55;99520.59;;;4.08;61.24
47280;BME280;34064;44.942;0.008;2024-01-10T11:30:48;99516.16;;;4.10;61.25
47280;BME280;34064;44.942;0.008;2024-01-10T11:33:23;99518.69;;;4.11;61.15
47280;BME280;34064;44.942;0.008;2024-01-10T11:36:11;99522.06;;;4.15;61.21
47280;BME280;34064;44.942;0.008;2024-01-10T11:39:09;99515.97;;;4.14;61.20
47280;BME280;34064;44.942;0.008;2024-01-10T11:41:39;99511.09;;;4.03;61.73
47280;BME280;34064;44.942;0.008;2024-01-10T11:46:53;99524.25;;;4.03;61.88
47280;BME280;34064;44.942;0.008;2024-01-10T11:49:24;99511.00;;;4.06;61.92
47280;BME280;34064;44.942;0.008;2024-01-10T11:51:55;99506.56;;;4.07;61.92
47280;BME280;34064;44.942;0.008;2024-01-10T11:54:43;99495.22;;;4.06;62.16
47280;BME280;34064;44.942;0.008;2024-01-10T11:59:44;99492.59;;;4.06;62.09
47280;BME280;34064;44.942;0.008;2024-01-10T12:02:14;99485.50;;;4.09;61.92
47280;BME280;34064;44.942;0.008;2024-01-10T12:04:41;99476.81;;;4.06;62.27
47280;BME280;34064;44.942;0.008;2024-01-10T12:07:12;99475.91;;;4.08;61.89
47280;BME280;34064;44.942;0.008;2024-01-10T12:09:39;99469.72;;;4.09;62.14
47280;BME280;34064;44.942;0.008;2024-01-10T12:12:05;99469.59;;;4.12;62.00
47280;BME280;34064;44.942;0.008;2024-01-10T12:14:33;99466.84;;;4.15;62.12
47280;BME280;34064;44.942;0.008;2024-01-10T12:17:00;99462.38;;;4.17;62.00
47280;BME280;34064;44.942;0.008;2024-01-10T12:19:27;99464.03;;;4.19;62.15
47280;BME280;34064;44.942;0.008;2024-01-10T12:21:53;99461.31;;;4.21;61.99
47280;BME280;34064;44.942;0.008;2024-01-10T12:24:20;99456.06;;;4.21;62.27
47280;BME280;34064;44.942;0.008;2024-01-10T12:26:48;99452.47;;;4.24;62.13
47280;BME280;34064;44.942;0.008;2024-01-10T12:29:18;99448.06;;;4.24;62.37
47280;BME280;34064;44.942;0.008;2024-01-10T12:31:46;99446.22;;;4.26;62.24
47280;BME280;34064;44.942;0.008;2024-01-10T12:34:13;99441.81;;;4.27;62.34
47280;BME280;34064;44.942;0.008;2024-01-10T12:36:41;99438.22;;;4.29;62.34
47280;BME280;34064;44.942;0.008;2024-01-10T12:39:09;99427.72;;;4.29;62.42
47280;BME280;34064;44.942;0.008;2024-01-10T12:41:36;99428.47;;;4.31;62.54
47280;BME280;34064;44.942;0.008;2024-01-10T12:44:03;99435.59;;;4.29;62.69
47280;BME280;34064;44.942;0.008;2024-01-10T12:46:31;99426.75;;;4.30;62.65
47280;BME280;34064;44.942;0.008;2024-01-10T12:49:05;99427.63;;;4.31;62.61
47280;BME280;34064;44.942;0.008;2024-01-10T12:51:33;99437.28;;;4.30;62.51
47280;BME280;34064;44.942;0.008;2024-01-10T12:54:03;99432.03;;;4.30;62.57
47280;BME280;34064;44.942;0.008;2024-01-10T12:56:33;99430.44;;;4.26;62.88
47280;BME280;34064;44.942;0.008;2024-01-10T12:59:00;99423.47;;;4.25;62.95
47280;BME280;34064;44.942;0.008;2024-01-10T13:01:26;99425.19;;;4.26;62.92
47280;BME280;34064;44.942;0.008;2024-01-10T13:03:53;99425.25;;;4.25;63.03
47280;BME280;34064;44.942;0.008;2024-01-10T13:06:19;99425.84;;;4.31;62.95
47280;BME280;34064;44.942;0.008;2024-01-10T13:08:48;99433.75;;;4.31;63.10
47280;BME280;34064;44.942;0.008;2024-01-10T13:11:15;99426.03;;;4.27;63.21
47280;BME280;34064;44.942;0.008;2024-01-10T13:13:42;99429.56;;;4.26;63.09
47280;BME280;34064;44.942;0.008;2024-01-10T13:16:11;99422.38;;;4.31;63.18
47280;BME280;34064;44.942;0.008;2024-01-10T13:18:39;99418.09;;;4.28;63.59
47280;BME280;34064;44.942;0.008;2024-01-10T13:21:06;99416.13;;;4.33;63.54
47280;BME280;34064;44.942;0.008;2024-01-10T13:23:32;99418.63;;;4.36;63.36
47280;BME280;34064;44.942;0.008;2024-01-10T13:25:59;99417.47;;;4.44;62.94
47280;BME280;34064;44.942;0.008;2024-01-10T13:28:25;99410.47;;;4.43;62.94